African Highway — 3EOD8 — position and weather

sailwx.info

Track history (hours):
 
Tides and Currents Weather Stations Pressure Air Temp Water Temp Dewpoint Dewpoint Depression Visibility Wind Speed Wind Dir Waves Ship Positions

African Highway

Last reported at 2017-Jan-12 13:32 UTC. Time now 2017-Jan-23 10:40 UTC.
Position N 38°51' E 026°54'.
Warning: this ship's position is 10 days out of date.

Length 154.5 m; beam 27.6 m.

Type: Cargo ship. MMSI: 353633000.

Date/timePositionNaut miles runAvg speedWind from/ knotsBaromVisibWave heightAir tempDewpointWater temp
2017-Jan-12 13:32N 38°51' E 026°54'0 0.5
2017-Jan-12 12:31N 38°51' E 026°54'0 0.0
2017-Jan-12 11:31N 38°51' E 026°54'0 0.0
2017-Jan-12 10:31N 38°51' E 026°54'0 0.0
2017-Jan-12 09:28N 38°51' E 026°54'0 0.0
2017-Jan-12 08:25N 38°51' E 026°54'0 0.1
2017-Jan-12 07:31N 38°51' E 026°54'0 0.5
2017-Jan-12 06:34N 38°51' E 026°54'0 0.4
2017-Jan-12 05:29N 38°51' E 026°55'0 0.4
2017-Jan-12 04:32N 38°51' E 026°54'0 0.3
2017-Jan-12 03:32N 38°52' E 026°54'0 0.1
2017-Jan-12 02:32N 38°51' E 026°54'0 0.1
2017-Jan-12 01:33N 38°52' E 026°54'7 7.3
2017-Jan-12 00:33N 38°51' E 026°45'1111.0
2017-Jan-11 23:33N 38°49' E 026°31'1111.0
2017-Jan-11 22:33N 38°47' E 026°17'1111.1
2017-Jan-11 21:32N 38°44' E 026°03'8610.7
2017-Jan-11 13:27N 37°52' E 024°35'1514.4
2017-Jan-11 12:26N 37°44' E 024°20'46113.5
2017-Jan-10 02:16N 36°25' E 014°51'1014.3
2017-Jan-10 01:33N 36°27' E 014°38'1414.5
2017-Jan-10 00:33N 36°31' E 014°21'1514.6
2017-Jan-09 23:33N 36°36' E 014°04'1413.8
2017-Jan-09 22:33N 36°40' E 013°48'69114.4
2017-Jan-07 22:33N 36°35' W 000°34'22614.1
2017-Jan-07 06:33N 36°00' W 005°11'1515.2
2017-Jan-07 05:33N 35°57' W 005°29'1413.7
2017-Jan-07 04:32N 35°55' W 005°46'21812.1
2017-Jan-06 10:30N 37°36' W 009°47'1415.0
2017-Jan-06 09:33N 37°50' W 009°51'1514.5
2017-Jan-06 08:33N 38°04' W 009°55'1414.5
2017-Jan-06 07:34N 38°18' W 009°60'1414.0
2017-Jan-06 06:33N 38°32' W 010°04'1414.2
2017-Jan-06 05:33N 38°46' W 010°06'1413.8
2017-Jan-06 04:33N 38°60' W 010°07'1414.3
2017-Jan-06 03:34N 39°14' W 010°07'1514.6
2017-Jan-06 02:30N 39°30' W 010°07'1914.2
2017-Jan-06 01:11N 39°48' W 010°07'57813.8
2017-Jan-04 07:15N 48°55' W 005°42'1513.2
2017-Jan-04 06:06N 49°04' W 005°23'1013.6
2017-Jan-04 05:22N 49°08' W 005°10'1314.2
2017-Jan-04 04:26N 49°15' W 004°52'1415.0
2017-Jan-04 03:30N 49°22' W 004°34'1615.5
2017-Jan-04 02:27N 49°30' W 004°12'1415.3
2017-Jan-04 01:33N 49°37' W 003°54'1514.6
2017-Jan-04 00:33N 49°45' W 003°35'1413.7
2017-Jan-03 23:33N 49°52' W 003°17'1312.9
2017-Jan-03 22:33N 49°58' W 002°59'8914.7
2017-Jan-03 16:33N 50°23' W 000°46'1615.7
2017-Jan-03 15:33N 50°28' W 000°23'1414.5
2017-Jan-03 14:33N 50°32' W 000°01'1413.5
2017-Jan-03 13:31N 50°35' E 000°21'3012.8
2017-Jan-03 11:13N 50°50' E 001°01'1014.8
2017-Jan-03 10:33N 50°56' E 001°12'1616.1
2017-Jan-03 09:33N 51°06' E 001°32'1615.8
2017-Jan-03 08:33N 51°18' E 001°49'1414.2
2017-Jan-03 07:33N 51°29' E 002°03'1613.3
2017-Jan-03 06:21N 51°42' E 002°19'11113.8
2017-Jan-02 22:20N 53°06' E 004°17'9711.0
2017-Jan-02 13:33N 53°26' E 006°56'  
Track history (hours):
 
Tides and Currents Weather Stations Pressure Air Temp Water Temp Dewpoint Dewpoint Depression Visibility Wind Speed Wind Dir Waves Ship Positions

African Highway

Last reported at 2017-Jan-12 13:32 UTC. Time now 2017-Jan-23 10:40 UTC.
Position N 38°51' E 026°54'.
Warning: this ship's position is 10 days out of date.

Length 154.5 m; beam 27.6 m.

Type: Cargo ship. MMSI: 353633000.

Date/timePositionNaut miles runAvg speedWind from/ knotsBaromVisibWave heightAir tempDewpointWater temp
2017-Jan-12 13:32N 38°51' E 026°54'0 0.5
2017-Jan-12 12:31N 38°51' E 026°54'0 0.0
2017-Jan-12 11:31N 38°51' E 026°54'0 0.0
2017-Jan-12 10:31N 38°51' E 026°54'0 0.0
2017-Jan-12 09:28N 38°51' E 026°54'0 0.0
2017-Jan-12 08:25N 38°51' E 026°54'0 0.1
2017-Jan-12 07:31N 38°51' E 026°54'0 0.5
2017-Jan-12 06:34N 38°51' E 026°54'0 0.4
2017-Jan-12 05:29N 38°51' E 026°55'0 0.4
2017-Jan-12 04:32N 38°51' E 026°54'0 0.3
2017-Jan-12 03:32N 38°52' E 026°54'0 0.1
2017-Jan-12 02:32N 38°51' E 026°54'0 0.1
2017-Jan-12 01:33N 38°52' E 026°54'7 7.3
2017-Jan-12 00:33N 38°51' E 026°45'1111.0
2017-Jan-11 23:33N 38°49' E 026°31'1111.0
2017-Jan-11 22:33N 38°47' E 026°17'1111.1
2017-Jan-11 21:32N 38°44' E 026°03'8610.7
2017-Jan-11 13:27N 37°52' E 024°35'1514.4
2017-Jan-11 12:26N 37°44' E 024°20'46113.5
2017-Jan-10 02:16N 36°25' E 014°51'1014.3
2017-Jan-10 01:33N 36°27' E 014°38'1414.5
2017-Jan-10 00:33N 36°31' E 014°21'1514.6
2017-Jan-09 23:33N 36°36' E 014°04'1413.8
2017-Jan-09 22:33N 36°40' E 013°48'69114.4
2017-Jan-07 22:33N 36°35' W 000°34'22614.1
2017-Jan-07 06:33N 36°00' W 005°11'1515.2
2017-Jan-07 05:33N 35°57' W 005°29'1413.7
2017-Jan-07 04:32N 35°55' W 005°46'21812.1
2017-Jan-06 10:30N 37°36' W 009°47'1415.0
2017-Jan-06 09:33N 37°50' W 009°51'1514.5
2017-Jan-06 08:33N 38°04' W 009°55'1414.5
2017-Jan-06 07:34N 38°18' W 009°60'1414.0
2017-Jan-06 06:33N 38°32' W 010°04'1414.2
2017-Jan-06 05:33N 38°46' W 010°06'1413.8
2017-Jan-06 04:33N 38°60' W 010°07'1414.3
2017-Jan-06 03:34N 39°14' W 010°07'1514.6
2017-Jan-06 02:30N 39°30' W 010°07'1914.2
2017-Jan-06 01:11N 39°48' W 010°07'57813.8
2017-Jan-04 07:15N 48°55' W 005°42'1513.2
2017-Jan-04 06:06N 49°04' W 005°23'1013.6
2017-Jan-04 05:22N 49°08' W 005°10'1314.2
2017-Jan-04 04:26N 49°15' W 004°52'1415.0
2017-Jan-04 03:30N 49°22' W 004°34'1615.5
2017-Jan-04 02:27N 49°30' W 004°12'1415.3
2017-Jan-04 01:33N 49°37' W 003°54'1514.6
2017-Jan-04 00:33N 49°45' W 003°35'1413.7
2017-Jan-03 23:33N 49°52' W 003°17'1312.9
2017-Jan-03 22:33N 49°58' W 002°59'8914.7
2017-Jan-03 16:33N 50°23' W 000°46'1615.7
2017-Jan-03 15:33N 50°28' W 000°23'1414.5
2017-Jan-03 14:33N 50°32' W 000°01'1413.5
2017-Jan-03 13:31N 50°35' E 000°21'3012.8
2017-Jan-03 11:13N 50°50' E 001°01'1014.8
2017-Jan-03 10:33N 50°56' E 001°12'1616.1
2017-Jan-03 09:33N 51°06' E 001°32'1615.8
2017-Jan-03 08:33N 51°18' E 001°49'1414.2
2017-Jan-03 07:33N 51°29' E 002°03'1613.3
2017-Jan-03 06:21N 51°42' E 002°19'11113.8
2017-Jan-02 22:20N 53°06' E 004°17'9711.0
2017-Jan-02 13:33N 53°26' E 006°56'  

Dump ship's entire track history